Terminal Aerodrome Forecast
Issued by NWS

Home | Current Version | Previous Version | Text Only | Print | Product List | Glossary On
Versions: 1 2 3 4 5 6 7 8 9 10 11 12 13 14 15 16 17 18 19 20 21 22 23 24 25 26 27 28 29 30 31 32 33 34 35 36 37 38 39 40 41 42 43 44 45 46 47 48
159
FTUS43 KDTX 192026 AAA
TAFDET
TAF AMD
KDET 192026Z 1920/2018 01014G25KT P6SM OVC015
     FM200200 01016G28KT P6SM BKN018 OVC040
     FM200900 01015G26KT 6SM -RA BKN016 OVC025
     FM201400 36012G22KT 3SM RA BR SCT008 OVC014=

USA.gov is the U.S. government's official web portal to all federal, state and local government web resources and services.